Time;durP1;ratioP1;P1;durP2;ratioP2;P2;SDS_P1;SDS_P2;PMS_P1;PMS_P2;Temp;Humidity;BMP_temperature;BMP_pressure;BME280_temperature;BME280_humidity;BME280_pressure;Samples;Min_cycle;Max_cycle;Signal;HPM_P1;HPM_P2
2022/12/08 00:02:13;;;;;;;5.70;0.77;;;2.50;99.90;;;;;;6165550;23;20020;-83
2022/12/08 00:10:08;;;;;;;7.90;1.00;;;2.60;99.90;;;;;;6185364;23;20070;-84
2022/12/08 00:12:34;;;;;;;2.95;0.68;;;2.60;99.90;;;;;;6186141;23;20019;-82
2022/12/08 00:14:59;;;;;;;7.55;1.08;;;2.80;99.90;;;;;;6185926;23;20052;-81
2022/12/08 00:17:27;;;;;;;7.03;1.15;;;2.80;99.90;;;;;;6186253;23;20092;-84
2022/12/08 00:19:52;;;;;;;13.30;1.40;;;2.70;99.90;;;;;;6215356;23;20016;-83
2022/12/08 00:22:18;;;;;;;8.63;1.10;;;2.80;99.90;;;;;;6185075;23;20325;-83
2022/12/08 00:24:45;;;;;;;7.07;1.23;;;2.70;99.90;;;;;;6183839;23;20325;-84
2022/12/08 00:27:13;;;;;;;6.30;1.10;;;2.90;99.90;;;;;;6160465;23;20016;-82
2022/12/08 00:29:39;;;;;;;6.40;1.02;;;2.60;99.90;;;;;;6162433;23;20025;-82
2022/12/08 00:32:05;;;;;;;4.93;1.00;;;2.60;99.90;;;;;;6186342;23;20317;-83
2022/12/08 00:38:22;;;;;;;8.25;1.23;;;2.40;99.90;;;;;;6242548;23;20019;-83
2022/12/08 00:40:48;;;;;;;7.35;1.33;;;2.20;99.90;;;;;;6252134;23;20380;-84
2022/12/08 00:43:14;;;;;;;11.65;1.42;;;2.60;99.90;;;;;;6199784;23;20020;-83
2022/12/08 00:45:40;;;;;;;8.02;1.35;;;2.20;99.90;;;;;;6194989;23;20040;-81
2022/12/08 00:48:07;;;;;;;9.55;1.58;;;2.10;99.90;;;;;;6219727;23;20497;-83
2022/12/08 00:50:33;;;;;;;8.80;1.45;;;2.10;99.90;;;;;;6193346;23;20051;-85
2022/12/08 00:52:58;;;;;;;6.82;1.25;;;2.50;99.90;;;;;;6214391;23;20016;-85
2022/12/08 00:55:24;;;;;;;14.02;1.38;;;2.20;99.90;;;;;;6242497;23;20087;-85
2022/12/08 00:57:50;;;;;;;12.20;1.60;;;2.10;99.90;;;;;;6216228;23;20101;-83
2022/12/08 01:00:16;;;;;;;9.82;1.10;;;2.20;99.90;;;;;;6241770;23;20066;-83
2022/12/08 01:02:42;;;;;;;7.90;1.10;;;2.20;99.90;;;;;;6187951;23;20427;-83
2022/12/08 01:05:08;;;;;;;6.50;1.05;;;2.20;99.90;;;;;;6166059;23;20008;-84
2022/12/08 01:07:34;;;;;;;10.00;1.27;;;2.30;99.90;;;;;;6190066;23;20465;-84
2022/12/08 01:10:00;;;;;;;5.15;0.80;;;2.40;99.90;;;;;;6192931;23;20050;-84
2022/12/08 01:12:28;;;;;;;4.97;1.05;;;2.10;99.90;;;;;;6193828;23;20016;-84
2022/12/08 01:14:54;;;;;;;9.25;1.15;;;2.50;99.90;;;;;;6198065;23;20399;-82
2022/12/08 01:17:19;;;;;;;5.97;1.10;;;2.10;99.90;;;;;;6209133;23;20092;-83
2022/12/08 01:23:30;;;;;;;6.70;0.73;;;2.40;99.90;;;;;;6262413;23;20026;-84
2022/12/08 01:26:04;;;;;;;5.07;1.00;;;2.40;99.90;;;;;;6198618;23;20428;-83
2022/12/08 01:28:31;;;;;;;6.68;1.23;;;2.20;99.90;;;;;;6218598;23;20381;-84
2022/12/08 01:30:59;;;;;;;5.38;1.15;;;2.10;99.90;;;;;;6200242;23;20050;-81
2022/12/08 01:33:25;;;;;;;10.02;1.45;;;2.40;99.90;;;;;;6200507;23;20020;-81
2022/12/08 01:35:51;;;;;;;6.80;0.90;;;2.10;99.90;;;;;;6190635;23;20161;-84
2022/12/08 01:38:18;;;;;;;5.28;0.80;;;2.40;99.90;;;;;;6190900;23;20015;-84
2022/12/08 01:40:44;;;;;;;4.13;0.85;;;2.30;99.90;;;;;;6216127;23;20562;-82
2022/12/08 01:43:18;;;;;;;4.13;0.80;;;2.20;99.90;;;;;;6241500;23;20035;-83
2022/12/08 01:45:44;;;;;;;6.10;0.88;;;2.70;99.90;;;;;;6214154;23;20012;-83
2022/12/08 01:48:25;;;;;;;5.93;0.88;;;2.40;99.90;;;;;;6192225;23;20015;-83
2022/12/08 01:50:54;;;;;;;4.00;1.30;;;2.50;99.90;;;;;;6212165;23;20036;-84
2022/12/08 01:53:27;;;;;;;3.55;0.60;;;2.70;99.90;;;;;;6213414;23;20794;-83
2022/12/08 01:55:57;;;;;;;5.18;0.70;;;2.50;99.90;;;;;;6188808;23;20077;-84
2022/12/08 01:58:34;;;;;;;5.55;0.77;;;2.70;99.90;;;;;;6213268;23;20535;-83
2022/12/08 02:01:00;;;;;;;8.07;1.10;;;2.40;99.90;;;;;;6215947;23;20020;-84
2022/12/08 02:03:39;;;;;;;9.43;1.02;;;2.50;99.90;;;;;;6214882;23;20012;-83
2022/12/08 02:06:10;;;;;;;10.90;1.00;;;2.50;99.90;;;;;;6217057;23;20305;-86
2022/12/08 02:08:39;;;;;;;2.45;0.70;;;2.50;99.90;;;;;;6191370;23;20463;-85
2022/12/08 02:11:08;;;;;;;7.78;0.90;;;2.50;99.90;;;;;;6189673;23;20437;-83
2022/12/08 02:13:34;;;;;;;5.28;1.05;;;2.40;99.90;;;;;;6188791;23;20099;-85
2022/12/08 02:16:11;;;;;;;6.10;1.23;;;2.70;99.90;;;;;;6186984;23;20150;-84
2022/12/08 02:18:58;;;;;;;5.50;1.05;;;2.30;99.90;;;;;;6188984;22;20012;-83
2022/12/08 02:21:42;;;;;;;4.88;0.70;;;2.70;99.90;;;;;;6187736;23;20704;-82
2022/12/08 02:24:32;;;;;;;7.32;3.10;;;2.70;99.90;;;;;;6212718;23;20016;-80
2022/12/08 02:27:23;;;;;;;6.32;2.45;;;2.80;99.90;;;;;;6217292;23;20074;-83
2022/12/08 02:30:16;;;;;;;3.70;0.70;;;2.40;99.90;;;;;;6190558;23;20031;-83
2022/12/08 02:33:12;;;;;;;3.45;1.40;;;2.70;99.90;;;;;;6201844;23;20042;-83
2022/12/08 02:35:52;;;;;;;6.22;2.50;;;2.30;99.90;;;;;;6195842;23;20438;-83
2022/12/08 02:38:26;;;;;;;4.65;1.00;;;2.60;99.90;;;;;;6213525;23;20352;-82
2022/12/08 02:41:04;;;;;;;1.40;0.43;;;2.30;99.90;;;;;;6191678;23;20095;-83
2022/12/08 02:43:41;;;;;;;0.73;0.30;;;2.30;99.90;;;;;;6188148;23;20099;-81
2022/12/08 02:46:12;;;;;;;4.97;0.80;;;2.20;99.90;;;;;;6212580;23;20085;-83
2022/12/08 02:48:39;;;;;;;2.72;0.70;;;2.50;99.90;;;;;;6239767;23;20107;-84
2022/12/08 02:51:07;;;;;;;2.47;0.40;;;2.30;99.90;;;;;;6214699;23;20015;-84
2022/12/08 02:53:35;;;;;;;1.95;0.30;;;2.00;99.90;;;;;;6187990;23;20296;-83
2022/12/08 02:56:13;;;;;;;1.85;0.38;;;2.40;99.90;;;;;;6187428;23;20012;-83
2022/12/08 02:59:15;;;;;;;2.83;0.30;;;2.40;99.90;;;;;;6192185;23;20016;-85
2022/12/08 03:02:09;;;;;;;0.47;0.10;;;2.30;99.90;;;;;;6045076;23;20339;-81
2022/12/08 03:05:01;;;;;;;1.73;0.30;;;2.00;99.90;;;;;;6099714;23;20059;-80
2022/12/08 03:07:49;;;;;;;3.67;0.20;;;2.40;99.90;;;;;;6070421;23;20053;-83
2022/12/08 03:10:24;;;;;;;1.08;0.28;;;1.90;99.90;;;;;;6043862;23;20014;-82
2022/12/08 03:13:11;;;;;;;2.00;0.38;;;2.10;99.90;;;;;;6066744;23;20408;-83
2022/12/08 03:15:37;;;;;;;1.33;0.30;;;2.30;99.90;;;;;;6091735;23;20118;-84
2022/12/08 03:18:05;;;;;;;1.55;0.40;;;2.10;99.90;;;;;;6066728;23;20375;-84
2022/12/08 03:20:34;;;;;;;0.73;0.50;;;2.40;99.90;;;;;;6065339;23;20303;-83
2022/12/08 03:23:04;;;;;;;2.78;0.68;;;2.30;99.90;;;;;;6041410;23;20018;-84
2022/12/08 03:25:32;;;;;;;2.72;0.80;;;2.20;99.90;;;;;;6067225;23;20014;-84
2022/12/08 03:27:59;;;;;;;3.88;1.10;;;2.30;99.90;;;;;;6064554;23;20018;-83
2022/12/08 03:30:28;;;;;;;1.05;0.95;;;2.40;99.90;;;;;;6090709;23;20018;-82
2022/12/08 03:33:08;;;;;;;3.00;1.15;;;2.20;99.90;;;;;;6041164;23;20471;-83
2022/12/08 03:35:38;;;;;;;1.58;0.98;;;2.40;99.90;;;;;;6090051;23;20037;-86
2022/12/08 03:38:11;;;;;;;2.40;1.00;;;2.30;99.90;;;;;;6145641;23;20358;-84
2022/12/08 03:40:38;;;;;;;2.75;1.20;;;2.60;99.90;;;;;;6183094;23;20569;-83
2022/12/08 03:43:03;;;;;;;3.30;0.90;;;2.20;99.90;;;;;;6184544;23;20103;-84
2022/12/08 03:45:30;;;;;;;1.85;1.10;;;2.50;99.90;;;;;;6160084;23;20024;-83
2022/12/08 03:47:55;;;;;;;2.95;0.73;;;2.20;99.90;;;;;;6184915;23;20404;-84
2022/12/08 03:50:21;;;;;;;1.75;0.90;;;2.40;99.90;;;;;;6160068;23;20020;-85
2022/12/08 03:52:48;;;;;;;1.95;0.93;;;2.20;99.90;;;;;;6159961;23;20023;-82
2022/12/08 03:55:14;;;;;;;3.22;0.80;;;2.10;99.90;;;;;;6185690;23;20008;-82
2022/12/08 03:57:40;;;;;;;1.50;0.70;;;2.30;99.90;;;;;;6184068;23;20425;-86
2022/12/08 04:00:08;;;;;;;6.15;0.73;;;2.20;99.90;;;;;;6160097;23;20039;-83
2022/12/08 04:02:34;;;;;;;4.30;0.85;;;2.10;99.90;;;;;;6159508;23;20013;-84
2022/12/08 04:04:59;;;;;;;1.52;0.70;;;2.00;99.90;;;;;;6186682;23;20016;-84
2022/12/08 04:07:25;;;;;;;1.55;0.80;;;2.30;99.90;;;;;;6213827;23;20070;-85
2022/12/08 04:09:51;;;;;;;2.28;0.77;;;2.40;99.90;;;;;;6212751;23;20131;-84
2022/12/08 04:12:22;;;;;;;3.95;0.90;;;2.30;99.90;;;;;;6160977;23;20035;-84
2022/12/08 04:14:47;;;;;;;3.47;0.65;;;2.00;99.90;;;;;;6162238;23;20024;-83
2022/12/08 04:17:13;;;;;;;4.88;1.00;;;2.40;99.90;;;;;;6186279;23;20040;-84
2022/12/08 04:19:39;;;;;;;4.38;0.90;;;2.20;99.90;;;;;;6185842;23;20450;-83
2022/12/08 04:22:06;;;;;;;2.20;0.90;;;2.20;99.90;;;;;;6214600;23;20016;-83
2022/12/08 04:24:32;;;;;;;2.72;0.63;;;2.40;99.90;;;;;;6162103;23;20398;-83
2022/12/08 04:26:57;;;;;;;3.17;0.65;;;2.20;99.90;;;;;;6213206;23;20048;-84
2022/12/08 04:29:23;;;;;;;2.17;0.43;;;2.20;99.90;;;;;;6163883;23;20017;-83
2022/12/08 04:31:49;;;;;;;1.73;0.40;;;2.60;99.90;;;;;;6168068;23;20044;-84
2022/12/08 04:34:15;;;;;;;6.00;0.73;;;2.50;99.90;;;;;;6165953;23;20012;-83
2022/12/08 04:37:18;;;;;;;2.15;0.40;;;2.30;99.90;;;;;;6168772;23;20420;-81
2022/12/08 04:39:44;;;;;;;2.10;0.28;;;2.30;99.90;;;;;;6215004;23;20419;-82
2022/12/08 04:42:09;;;;;;;1.08;0.47;;;2.40;99.90;;;;;;6219560;23;20020;-82
2022/12/08 04:44:35;;;;;;;2.85;0.70;;;2.20;99.90;;;;;;6192560;23;20016;-84
2022/12/08 04:47:01;;;;;;;2.95;0.50;;;2.30;99.90;;;;;;6216937;23;20052;-86
2022/12/08 04:49:26;;;;;;;4.47;0.50;;;2.50;99.90;;;;;;6217090;23;20016;-86
2022/12/08 04:51:52;;;;;;;2.47;0.30;;;2.30;99.90;;;;;;6192042;23;20012;-87
2022/12/08 04:54:18;;;;;;;4.03;0.40;;;2.20;99.90;;;;;;6192360;23;20090;-86
2022/12/08 04:56:43;;;;;;;3.83;0.60;;;2.50;99.90;;;;;;6192404;23;20012;-86
2022/12/08 04:59:09;;;;;;;2.60;0.30;;;2.10;99.90;;;;;;6216955;23;20317;-85
2022/12/08 05:01:35;;;;;;;3.25;0.38;;;2.40;99.90;;;;;;6217276;23;20099;-86
2022/12/08 05:04:01;;;;;;;2.33;0.35;;;2.40;99.90;;;;;;6244186;23;20016;-86
2022/12/08 05:06:26;;;;;;;2.80;0.20;;;2.20;99.90;;;;;;6216622;23;20012;-84
2022/12/08 05:08:52;;;;;;;1.05;0.30;;;2.10;99.90;;;;;;6191703;23;20013;-85
2022/12/08 05:11:18;;;;;;;4.00;0.47;;;2.20;99.90;;;;;;6191220;23;20019;-85
2022/12/08 05:13:44;;;;;;;1.35;0.30;;;2.40;99.90;;;;;;6215837;23;20339;-86
2022/12/08 05:16:12;;;;;;;5.00;0.55;;;2.40;99.90;;;;;;6192262;23;20012;-86
2022/12/08 05:18:38;;;;;;;6.25;0.50;;;2.10;99.90;;;;;;6193794;22;20016;-84
2022/12/08 05:21:05;;;;;;;3.67;0.40;;;2.10;99.90;;;;;;6194169;23;20008;-84
2022/12/08 05:23:31;;;;;;;4.03;0.30;;;2.40;99.90;;;;;;6217681;23;20031;-84
2022/12/08 05:25:57;;;;;;;3.85;0.82;;;2.40;99.90;;;;;;6193461;23;20012;-85
2022/12/08 05:28:23;;;;;;;3.30;0.50;;;2.00;99.90;;;;;;6218972;23;20012;-84
2022/12/08 05:30:48;;;;;;;6.22;0.70;;;2.10;99.90;;;;;;6192871;23;20377;-85
2022/12/08 05:33:14;;;;;;;3.72;0.38;;;2.00;99.90;;;;;;6192610;23;20023;-84
2022/12/08 05:35:40;;;;;;;2.20;0.60;;;2.30;99.90;;;;;;6218820;23;20016;-85
2022/12/08 05:38:06;;;;;;;4.97;0.40;;;2.50;99.90;;;;;;6192850;23;20012;-85
2022/12/08 05:40:32;;;;;;;2.90;0.60;;;2.30;99.90;;;;;;6212727;23;20329;-85
2022/12/08 05:42:57;;;;;;;2.40;0.50;;;2.30;99.90;;;;;;6137709;23;20031;-84
2022/12/08 05:45:23;;;;;;;3.78;0.70;;;2.20;99.90;;;;;;6186693;23;20090;-85
2022/12/08 05:47:49;;;;;;;4.20;0.55;;;2.10;99.90;;;;;;6186932;23;20051;-85
2022/12/08 05:50:52;;;;;;;2.78;0.50;;;1.90;99.90;;;;;;6162640;23;20067;-84
2022/12/08 05:53:19;;;;;;;2.38;0.50;;;2.10;99.90;;;;;;6186564;23;20023;-84
2022/12/08 05:55:45;;;;;;;2.97;0.50;;;2.00;99.90;;;;;;6136904;23;20447;-85
2022/12/08 05:58:17;;;;;;;5.65;0.88;;;2.10;99.90;;;;;;6187312;23;20334;-86
2022/12/08 06:00:43;;;;;;;2.38;0.55;;;2.00;99.90;;;;;;6186776;23;20082;-83
2022/12/08 06:03:12;;;;;;;5.38;1.00;;;1.70;99.90;;;;;;6186746;23;20016;-85
2022/12/08 06:05:39;;;;;;;2.58;0.50;;;1.80;99.90;;;;;;6163164;23;20012;-85
2022/12/08 06:08:08;;;;;;;2.85;0.50;;;1.70;99.90;;;;;;6188692;23;20111;-86
2022/12/08 06:10:34;;;;;;;3.95;0.60;;;1.70;99.90;;;;;;6193904;23;20321;-84
2022/12/08 06:13:02;;;;;;;1.08;0.60;;;1.70;99.90;;;;;;6175822;23;20013;-81
2022/12/08 06:15:28;;;;;;;3.13;0.70;;;1.90;99.90;;;;;;6195902;23;20009;-83
2022/12/08 06:17:54;;;;;;;7.03;0.75;;;1.90;99.90;;;;;;6165153;23;20015;-84
2022/12/08 06:20:19;;;;;;;5.07;0.70;;;1.50;99.90;;;;;;6166162;23;20376;-83
2022/12/08 06:22:46;;;;;;;3.78;0.90;;;1.40;99.90;;;;;;6189055;23;20024;-84
2022/12/08 06:25:13;;;;;;;4.95;0.80;;;1.70;99.90;;;;;;6139289;23;20074;-84
2022/12/08 06:27:39;;;;;;;10.40;0.88;;;1.60;99.90;;;;;;6163479;23;20009;-86
2022/12/08 06:30:08;;;;;;;3.00;0.90;;;1.60;99.90;;;;;;6187495;23;20064;-84
2022/12/08 06:32:34;;;;;;;2.20;0.88;;;1.60;99.90;;;;;;6207525;23;20168;-83
2022/12/08 06:35:12;;;;;;;2.65;0.90;;;1.50;99.90;;;;;;6211987;23;20012;-82
2022/12/08 06:37:38;;;;;;;10.55;1.05;;;1.50;99.90;;;;;;6239792;23;20008;-81
2022/12/08 06:40:04;;;;;;;3.22;0.80;;;1.30;99.90;;;;;;6213218;23;20028;-80
2022/12/08 06:42:46;;;;;;;6.72;1.00;;;1.20;99.90;;;;;;6212377;23;20025;-81
2022/12/08 06:45:16;;;;;;;2.83;0.75;;;1.30;99.90;;;;;;6159668;23;20016;-82
2022/12/08 06:47:42;;;;;;;2.10;0.60;;;1.20;99.90;;;;;;6159384;23;20016;-83
2022/12/08 06:50:10;;;;;;;5.75;0.70;;;1.20;99.90;;;;;;6184578;23;20020;-85
2022/12/08 06:52:36;;;;;;;8.60;1.15;;;1.20;99.90;;;;;;6184249;23;20092;-80
2022/12/08 06:55:02;;;;;;;3.53;1.35;;;1.50;99.90;;;;;;6184487;23;20392;-83
2022/12/08 06:57:27;;;;;;;3.90;1.10;;;1.50;99.90;;;;;;6211498;23;20009;-83
2022/12/08 06:59:53;;;;;;;4.32;0.90;;;1.30;99.90;;;;;;6186841;23;20286;-82
2022/12/08 07:02:19;;;;;;;2.78;0.77;;;1.10;99.90;;;;;;6165565;23;20012;-81
2022/12/08 07:04:44;;;;;;;3.72;0.88;;;1.40;99.90;;;;;;6163704;23;20067;-80
2022/12/08 07:07:10;;;;;;;5.60;1.20;;;1.20;99.90;;;;;;6215088;23;20024;-82
2022/12/08 07:09:36;;;;;;;4.72;1.02;;;1.30;99.90;;;;;;6161576;23;20019;-82
2022/12/08 07:12:03;;;;;;;5.13;1.10;;;1.30;99.90;;;;;;6214813;23;20120;-82
2022/12/08 07:14:29;;;;;;;6.15;1.00;;;0.90;99.90;;;;;;6187289;23;20348;-83
2022/12/08 07:16:54;;;;;;;3.35;1.00;;;0.90;99.90;;;;;;6184786;23;20016;-82
2022/12/08 07:19:20;;;;;;;4.03;1.30;;;0.90;99.90;;;;;;6155823;23;20333;-82
2022/12/08 07:21:46;;;;;;;4.13;1.30;;;1.20;99.90;;;;;;6180386;23;20392;-81
2022/12/08 07:24:11;;;;;;;3.58;1.10;;;1.20;99.90;;;;;;6208723;23;20017;-82
2022/12/08 07:26:38;;;;;;;7.70;1.27;;;1.00;99.90;;;;;;6180641;23;20054;-84
2022/12/08 07:29:04;;;;;;;8.50;1.30;;;0.80;99.90;;;;;;6181067;23;20346;-84
2022/12/08 07:31:30;;;;;;;8.80;1.35;;;1.20;99.90;;;;;;6180864;23;20088;-82
2022/12/08 07:33:57;;;;;;;8.05;1.63;;;1.10;99.90;;;;;;6180752;23;20322;-82
2022/12/08 07:36:24;;;;;;;4.68;1.38;;;1.00;99.90;;;;;;6182919;23;20100;-85
2022/12/08 07:38:52;;;;;;;9.48;1.70;;;0.90;99.90;;;;;;6184522;23;20032;-85
2022/12/08 07:41:19;;;;;;;16.05;1.63;;;0.70;99.90;;;;;;6185868;23;20103;-80
2022/12/08 07:43:45;;;;;;;8.20;1.70;;;1.00;99.90;;;;;;6190101;23;20021;-86
2022/12/08 07:46:13;;;;;;;8.48;1.73;;;0.90;99.90;;;;;;6217409;23;20148;-81
2022/12/08 07:48:39;;;;;;;9.60;1.60;;;0.70;99.90;;;;;;6219496;23;20084;-82
2022/12/08 07:51:05;;;;;;;5.47;1.73;;;0.70;99.90;;;;;;6217343;23;20154;-82
2022/12/08 07:53:31;;;;;;;5.15;1.52;;;0.80;99.90;;;;;;6209216;23;20059;-85
2022/12/08 07:55:57;;;;;;;3.67;1.70;;;0.70;99.90;;;;;;6209365;23;20044;-88
2022/12/08 07:58:23;;;;;;;5.10;1.67;;;0.80;99.90;;;;;;6206596;23;20071;-85
2022/12/08 08:00:48;;;;;;;11.48;1.75;;;0.90;99.90;;;;;;6206376;23;20159;-81
2022/12/08 08:03:14;;;;;;;4.63;1.80;;;0.70;99.90;;;;;;6207995;23;20103;-84
2022/12/08 08:09:58;;;;;;;5.47;1.67;;;0.90;99.90;;;;;;6209382;23;20054;-82
2022/12/08 08:12:24;;;;;;;9.43;1.88;;;0.60;99.90;;;;;;6208059;23;20439;-82
2022/12/08 08:14:50;;;;;;;4.80;2.05;;;0.70;99.90;;;;;;6181808;23;20017;-81
2022/12/08 08:17:15;;;;;;;5.10;2.10;;;0.80;99.90;;;;;;6209965;23;20020;-81
2022/12/08 08:19:41;;;;;;;4.95;1.90;;;0.90;99.90;;;;;;6215119;23;20024;-81
2022/12/08 08:22:27;;;;;;;9.02;2.00;;;0.90;99.90;;;;;;6212177;23;20023;-81
2022/12/08 08:24:53;;;;;;;8.50;1.50;;;1.20;99.90;;;;;;6210473;23;20017;-81
2022/12/08 08:27:19;;;;;;;10.00;1.80;;;1.10;99.90;;;;;;6210301;23;20019;-82
2022/12/08 08:29:45;;;;;;;8.20;1.40;;;1.50;99.90;;;;;;6211534;23;20008;-79
2022/12/08 08:32:10;;;;;;;7.72;1.33;;;1.40;99.90;;;;;;6210994;23;20090;-80
2022/12/08 08:34:37;;;;;;;6.68;1.40;;;1.50;99.90;;;;;;6213231;23;20023;-80
2022/12/08 08:37:03;;;;;;;3.05;0.90;;;1.70;99.90;;;;;;6211161;23;20190;-83
2022/12/08 08:39:30;;;;;;;3.88;1.00;;;1.70;99.90;;;;;;6200725;23;20069;-83
2022/12/08 08:41:56;;;;;;;4.32;1.00;;;1.60;99.90;;;;;;6210999;23;20028;-80
2022/12/08 08:44:22;;;;;;;8.23;1.20;;;1.70;99.90;;;;;;6187594;23;20317;-82
2022/12/08 08:46:48;;;;;;;6.22;1.20;;;1.60;99.90;;;;;;6185868;23;20017;-82
2022/12/08 08:49:13;;;;;;;6.38;1.45;;;1.50;99.90;;;;;;6187031;23;20013;-78
2022/12/08 08:51:39;;;;;;;4.72;1.25;;;1.60;99.90;;;;;;6138086;23;20012;-82
2022/12/08 08:54:05;;;;;;;10.93;1.40;;;1.60;99.90;;;;;;6188406;23;20020;-85
2022/12/08 08:56:30;;;;;;;4.05;1.10;;;1.30;99.90;;;;;;6185611;23;20087;-80
2022/12/08 08:58:56;;;;;;;5.80;1.60;;;1.40;99.90;;;;;;6161671;23;20055;-83
2022/12/08 09:01:25;;;;;;;7.18;1.10;;;1.60;99.90;;;;;;6185343;23;20066;-84
2022/12/08 09:03:51;;;;;;;7.85;1.65;;;1.60;99.90;;;;;;6160527;23;20086;-81
2022/12/08 09:06:18;;;;;;;13.30;2.13;;;1.70;99.90;;;;;;6189946;23;20085;-81
2022/12/08 09:08:44;;;;;;;8.90;1.50;;;1.90;99.90;;;;;;6190265;23;20020;-84
2022/12/08 09:11:11;;;;;;;8.27;1.58;;;1.70;99.90;;;;;;6166814;23;20102;-79
2022/12/08 09:13:37;;;;;;;10.40;1.75;;;1.90;99.90;;;;;;6191544;23;20023;-81
2022/12/08 09:16:05;;;;;;;5.53;1.60;;;2.00;99.90;;;;;;6186172;23;20088;-80
2022/12/08 09:18:31;;;;;;;5.90;1.33;;;1.90;99.90;;;;;;6187435;23;20012;-83
2022/12/08 09:24:57;;;;;;;8.98;2.00;;;2.00;99.90;;;;;;6215389;23;20035;-82
2022/12/08 09:27:24;;;;;;;6.13;1.73;;;2.30;99.90;;;;;;6160899;23;20019;-83
2022/12/08 09:29:50;;;;;;;4.50;1.50;;;2.40;99.90;;;;;;6160101;23;20023;-80
2022/12/08 09:32:16;;;;;;;8.35;1.88;;;2.10;99.90;;;;;;6212629;23;20086;-82
2022/12/08 09:34:42;;;;;;;10.48;2.30;;;2.10;99.90;;;;;;6186698;23;20305;-83
2022/12/08 09:37:08;;;;;;;7.50;1.70;;;2.40;99.90;;;;;;6186243;23;20100;-81
2022/12/08 09:39:33;;;;;;;7.47;2.03;;;2.50;99.90;;;;;;6190016;23;20024;-81
2022/12/08 09:42:02;;;;;;;8.43;1.95;;;2.40;99.90;;;;;;6211834;23;20020;-84
2022/12/08 09:44:58;;;;;;;9.52;1.48;;;2.50;99.90;;;;;;6162515;23;20091;-82
2022/12/08 09:47:42;;;;;;;4.40;1.27;;;2.50;99.90;;;;;;6210618;23;20416;-80
2022/12/08 09:50:29;;;;;;;12.35;1.48;;;2.40;99.90;;;;;;6186315;23;20325;-81
2022/12/08 09:53:21;;;;;;;5.30;1.20;;;2.70;99.90;;;;;;6211297;23;20019;-82
2022/12/08 09:55:51;;;;;;;5.93;1.15;;;2.60;99.90;;;;;;6187278;23;20439;-82
2022/12/08 09:58:51;;;;;;;14.18;1.23;;;2.50;99.90;;;;;;6188328;23;20015;-84
2022/12/08 10:01:21;;;;;;;6.82;1.30;;;2.40;99.90;;;;;;6212728;23;20019;-84
2022/12/08 10:03:47;;;;;;;6.72;1.20;;;2.60;99.90;;;;;;6213602;23;20016;-81
2022/12/08 10:06:31;;;;;;;8.30;1.48;;;2.50;99.90;;;;;;6213080;23;20016;-85
2022/12/08 10:09:12;;;;;;;4.28;1.50;;;2.60;99.90;;;;;;6213676;23;20013;-82
2022/12/08 10:11:58;;;;;;;5.53;1.85;;;2.30;99.90;;;;;;6188933;23;20020;-81
2022/12/08 10:15:10;;;;;;;12.00;1.65;;;2.60;99.90;;;;;;6212423;23;20318;-82
2022/12/08 10:17:43;;;;;;;7.15;1.80;;;2.30;99.90;;;;;;6184422;23;20064;-84
2022/12/08 10:20:17;;;;;;;8.75;1.70;;;2.30;99.90;;;;;;6214945;23;20013;-82
2022/12/08 10:22:45;;;;;;;6.35;1.52;;;2.70;99.90;;;;;;6184519;23;20420;-83
2022/12/08 10:25:36;;;;;;;8.27;1.45;;;2.40;99.90;;;;;;6211233;23;20059;-80
2022/12/08 10:28:02;;;;;;;3.67;1.17;;;2.30;99.90;;;;;;6212009;23;20008;-81
2022/12/08 10:30:30;;;;;;;11.15;1.40;;;2.50;99.90;;;;;;6212400;23;20380;-84
2022/12/08 10:32:56;;;;;;;4.07;1.02;;;2.40;99.90;;;;;;6211517;23;20009;-84
2022/12/08 10:35:24;;;;;;;8.38;1.10;;;2.50;99.90;;;;;;6213673;23;20021;-80
2022/12/08 10:41:40;;;;;;;5.50;0.63;;;2.90;99.90;;;;;;6249683;23;20090;-83
2022/12/08 10:44:08;;;;;;;5.35;0.50;;;3.30;99.90;;;;;;6209399;23;20023;-84
2022/12/08 10:46:37;;;;;;;4.85;1.00;;;3.40;99.90;;;;;;6259453;23;20060;-80
2022/12/08 10:49:05;;;;;;;4.40;0.80;;;3.60;99.90;;;;;;6247207;23;20013;-79
2022/12/08 10:51:37;;;;;;;8.70;0.70;;;3.40;99.90;;;;;;6193400;23;20012;-84
2022/12/08 10:54:04;;;;;;;5.18;0.88;;;3.40;99.90;;;;;;6188970;23;20101;-83
2022/12/08 10:56:33;;;;;;;4.95;0.55;;;3.60;99.90;;;;;;6192015;23;20084;-85
2022/12/08 10:59:13;;;;;;;4.60;0.60;;;3.50;99.90;;;;;;6192300;23;20020;-84
2022/12/08 11:01:41;;;;;;;6.32;0.55;;;3.50;99.90;;;;;;6191181;23;20022;-84
2022/12/08 11:04:17;;;;;;;3.22;0.55;;;3.60;99.90;;;;;;6243949;23;20038;-82
2022/12/08 11:06:43;;;;;;;4.38;0.55;;;3.60;99.90;;;;;;6214600;23;20012;-81
2022/12/08 11:09:15;;;;;;;5.07;0.70;;;3.70;99.90;;;;;;6241915;23;20011;-81
2022/12/08 11:12:17;;;;;;;6.93;0.68;;;3.80;99.90;;;;;;6216010;23;20490;-79
2022/12/08 11:14:42;;;;;;;8.52;0.80;;;3.70;99.90;;;;;;6215874;23;20031;-81
2022/12/08 11:17:27;;;;;;;5.70;0.90;;;3.80;99.90;;;;;;6215223;23;20499;-82
2022/12/08 11:20:02;;;;;;;2.97;0.70;;;4.10;99.90;;;;;;6215209;23;20092;-83
2022/12/08 11:22:54;;;;;;;5.82;1.00;;;4.20;99.90;;;;;;6215669;23;20035;-85
2022/12/08 11:25:23;;;;;;;4.57;1.30;;;4.10;99.90;;;;;;6214287;23;20409;-81
2022/12/08 11:27:58;;;;;;;7.05;1.15;;;4.30;99.90;;;;;;6190988;23;20066;-85
2022/12/08 11:30:29;;;;;;;6.32;1.08;;;4.30;99.90;;;;;;6189721;23;20032;-82
2022/12/08 11:33:02;;;;;;;7.80;1.10;;;4.50;99.90;;;;;;6217159;23;20412;-85
2022/12/08 11:35:41;;;;;;;2.00;0.60;;;4.60;99.90;;;;;;6190089;23;20023;-83
2022/12/08 11:38:20;;;;;;;2.20;0.60;;;4.60;99.90;;;;;;6216213;23;20014;-85
2022/12/08 11:40:48;;;;;;;3.03;0.85;;;4.60;99.90;;;;;;6210807;23;20017;-81
2022/12/08 11:43:24;;;;;;;6.40;2.40;;;4.40;99.90;;;;;;6186695;23;20021;-83
2022/12/08 11:45:57;;;;;;;2.85;1.30;;;4.10;99.90;;;;;;6187566;23;20017;-85
2022/12/08 11:48:32;;;;;;;3.90;1.02;;;3.90;99.90;;;;;;6187123;23;20346;-83
2022/12/08 11:55:04;;;;;;;1.75;0.50;;;3.70;99.90;;;;;;6217993;23;20312;-84
2022/12/08 11:57:29;;;;;;;2.05;0.30;;;3.60;99.90;;;;;;6220238;23;20083;-81
2022/12/08 11:59:57;;;;;;;4.15;0.50;;;3.70;99.90;;;;;;6216553;23;20369;-85
2022/12/08 12:02:28;;;;;;;1.83;0.43;;;3.70;99.90;;;;;;6214649;23;20019;-83
2022/12/08 12:05:07;;;;;;;3.63;0.60;;;3.70;99.90;;;;;;6215219;23;20111;-81
2022/12/08 12:08:11;;;;;;;3.30;0.22;;;3.70;99.90;;;;;;6213577;23;20017;-82
2022/12/08 12:10:42;;;;;;;5.35;2.63;;;3.70;99.90;;;;;;6187804;23;20132;-82
2022/12/08 12:13:29;;;;;;;11.18;4.93;;;3.90;99.90;;;;;;6190727;23;20059;-80
2022/12/08 12:16:22;;;;;;;10.48;4.88;;;3.90;99.90;;;;;;6215388;23;20013;-84
2022/12/08 12:18:56;;;;;;;9.38;4.82;;;4.10;99.90;;;;;;6222744;23;20012;-79
2022/12/08 12:21:44;;;;;;;9.80;4.78;;;4.20;99.90;;;;;;6222940;23;20016;-78
2022/12/08 12:24:22;;;;;;;13.32;7.50;;;4.20;99.90;;;;;;6213992;23;20284;-84
2022/12/08 12:27:01;;;;;;;9.27;5.03;;;4.10;99.90;;;;;;6212977;23;20083;-82
2022/12/08 12:29:34;;;;;;;7.60;3.17;;;4.20;99.90;;;;;;6165430;23;20013;-83
2022/12/08 12:32:06;;;;;;;4.90;0.93;;;4.30;99.90;;;;;;6165013;23;20016;-81
2022/12/08 12:34:33;;;;;;;1.65;0.55;;;4.30;99.90;;;;;;6188982;23;20016;-82
2022/12/08 12:37:17;;;;;;;2.60;0.70;;;4.40;99.90;;;;;;6188401;23;20440;-83
2022/12/08 12:39:52;;;;;;;4.20;0.65;;;4.40;99.90;;;;;;6213632;23;20123;-82
2022/12/08 12:42:37;;;;;;;1.63;0.40;;;4.30;99.90;;;;;;6163151;23;20107;-81
2022/12/08 12:45:18;;;;;;;2.17;0.60;;;4.20;99.90;;;;;;6188438;23;20621;-82
2022/12/08 12:48:12;;;;;;;7.13;0.60;;;4.30;99.90;;;;;;6188211;23;20040;-84
2022/12/08 12:50:45;;;;;;;3.25;0.70;;;4.30;99.90;;;;;;6100284;23;20164;-86
2022/12/08 12:53:16;;;;;;;3.22;0.40;;;4.30;99.90;;;;;;6076829;23;20093;-84
2022/12/08 12:55:45;;;;;;;3.22;0.60;;;4.40;99.90;;;;;;6076823;23;20426;-83
2022/12/08 12:58:31;;;;;;;1.40;0.20;;;4.30;99.90;;;;;;6073328;23;20018;-85
2022/12/08 13:01:22;;;;;;;7.55;0.40;;;4.50;99.90;;;;;;6099840;23;20096;-84
2022/12/08 13:04:04;;;;;;;1.40;0.40;;;4.40;99.90;;;;;;6065945;23;20477;-83
2022/12/08 13:06:47;;;;;;;1.95;0.40;;;4.40;99.90;;;;;;6042205;23;20054;-84
2022/12/08 13:09:27;;;;;;;3.67;0.43;;;4.40;99.90;;;;;;6038816;23;20015;-86
2022/12/08 13:11:57;;;;;;;5.30;0.47;;;4.30;99.90;;;;;;6064768;23;20051;-83
2022/12/08 13:14:35;;;;;;;4.93;1.85;;;4.40;99.90;;;;;;6063867;23;20018;-86
2022/12/08 13:17:06;;;;;;;6.80;2.50;;;4.30;99.90;;;;;;6016307;23;20493;-81
2022/12/08 13:19:35;;;;;;;1.92;0.40;;;4.30;99.90;;;;;;6063562;23;20025;-82
2022/12/08 13:22:38;;;;;;;3.65;0.60;;;4.30;99.90;;;;;;6039850;23;20154;-83
2022/12/08 13:25:37;;;;;;;4.63;0.60;;;4.10;99.90;;;;;;6016989;23;20038;-85
2022/12/08 13:28:15;;;;;;;4.25;0.60;;;3.90;99.90;;;;;;6078839;23;20021;-85
2022/12/08 13:30:42;;;;;;;0.75;0.40;;;3.80;99.90;;;;;;6098758;23;20077;-84
2022/12/08 13:33:23;;;;;;;3.00;0.30;;;3.80;99.90;;;;;;6074865;23;20049;-83
2022/12/08 13:36:19;;;;;;;4.97;0.50;;;3.70;99.90;;;;;;6099338;23;20010;-85
2022/12/08 13:39:05;;;;;;;2.78;0.40;;;3.70;99.90;;;;;;6098552;23;20019;-82
2022/12/08 13:41:40;;;;;;;3.85;1.25;;;3.50;99.90;;;;;;6178630;23;20044;-81
2022/12/08 13:44:19;;;;;;;2.38;0.52;;;3.50;99.90;;;;;;6236164;23;20065;-83
2022/12/08 13:46:50;;;;;;;2.78;1.45;;;3.50;99.90;;;;;;6213980;23;20018;-82